Mbour, Senegal
Current Conditions -  °F | °C
As of 11:30 PM on Wednesday 17 Dec 2014 (Local Time) from GOOY Reporting Station
Clear Clear  
Wind Chill: 72°   Ceiling: Unl
Heat Index: 72°   Visibility: 6mi
Dew Point: 63°   Wind: 9mph
Humidity: 73%   Direction: 10°N
Pressure: 29.97"   Gusts: NA
Location:  14.43°N, 16.97°W
Report Text: GOOY 172330Z 01008KT CAVOK 22/17 Q1015 NOSIG
Loading
Personal Weather Stations






























Interactive Weather Map New forecast layout! Learn more

10-Day Weather Forecast

Advertisements
Track Severe Weather on mobile